Terminal Aerodrome Forecast
Issued by NWS Paducah, KY

Home | Current Version | Previous Version | Text Only | Print | Product List | Glossary On
Versions: 1 2 3 4 5 6 7 8 9 10 11 12 13 14 15 16
000
FTUS43 KPAH 311140
TAFPAH
TAF
KPAH 311140Z 3112/0112 36008KT P6SM OVC005
     FM311400 36005KT P6SM BKN008 OVC015
     FM311600 36005KT P6SM BKN015 OVC025
     FM312000 02007KT P6SM VCSH BKN025
     FM010100 02006KT 6SM BR VCSH BKN015 OVC025
     FM010600 02005KT 5SM -SHRA BR BKN009 OVC015=

USA.gov is the U.S. government's official web portal to all federal, state and local government web resources and services.